Terminal Aerodrome Forecast
Issued by NWS Charleston, WV

Current Version | Previous Version | Graphics & Text | Print | Product List | Glossary On
Versions: 1 2 3 4 5 6 7 8 9 10 11 12 13 14 15 16 17 18 19 20 21 22 23 24 25 26 27 28 29 30 31 32
060
FTUS41 KRLX 300819 AAA
TAFCRW
TAF AMD
KCRW 300819Z 3008/3106 00000KT 6SM BR SCT001 BKN035
     FM301000 00000KT 4SM BR SCT001 BKN035
      TEMPO 3010/3013 2SM BR BKN001
     FM301300 00000KT 6SM BR HZ BKN015
     FM301500 00000KT P6SM BKN025
     FM301600 VRB03KT P6SM BKN035=

USA.gov is the U.S. government's official web portal to all federal, state and local government web resources and services.